sensor_id;sensor_type;location;lat;lon;timestamp;P1;durP1;ratioP1;P2;durP2;ratioP2
9657;SDS011;4867;48.112;11.622;2022-08-01T00:00:16;3.27;;;2.80;;
9657;SDS011;4867;48.112;11.622;2022-08-01T00:02:43;3.17;;;2.80;;
9657;SDS011;4867;48.112;11.622;2022-08-01T00:05:10;3.77;;;2.93;;
9657;SDS011;4867;48.112;11.622;2022-08-01T00:07:37;3.10;;;2.80;;
9657;SDS011;4867;48.112;11.622;2022-08-01T00:10:04;3.37;;;2.87;;
9657;SDS011;4867;48.112;11.622;2022-08-01T00:12:38;4.93;;;3.00;;
9657;SDS011;4867;48.112;11.622;2022-08-01T00:15:06;3.97;;;2.90;;
9657;SDS011;4867;48.112;11.622;2022-08-01T00:17:35;4.37;;;3.10;;
9657;SDS011;4867;48.112;11.622;2022-08-01T00:20:03;4.43;;;2.83;;
9657;SDS011;4867;48.112;11.622;2022-08-01T00:22:34;3.33;;;3.00;;
9657;SDS011;4867;48.112;11.622;2022-08-01T00:25:02;3.20;;;3.00;;
9657;SDS011;4867;48.112;11.622;2022-08-01T00:27:29;3.13;;;2.93;;
9657;SDS011;4867;48.112;11.622;2022-08-01T00:30:02;2.93;;;2.73;;
9657;SDS011;4867;48.112;11.622;2022-08-01T00:32:40;3.23;;;2.90;;
9657;SDS011;4867;48.112;11.622;2022-08-01T00:35:08;3.57;;;3.17;;
9657;SDS011;4867;48.112;11.622;2022-08-01T00:37:36;3.60;;;3.30;;
9657;SDS011;4867;48.112;11.622;2022-08-01T00:40:03;3.63;;;3.33;;
9657;SDS011;4867;48.112;11.622;2022-08-01T00:42:31;3.93;;;3.20;;
9657;SDS011;4867;48.112;11.622;2022-08-01T00:44:58;3.27;;;2.90;;
9657;SDS011;4867;48.112;11.622;2022-08-01T00:47:25;3.07;;;2.80;;
9657;SDS011;4867;48.112;11.622;2022-08-01T00:49:52;3.90;;;2.87;;
9657;SDS011;4867;48.112;11.622;2022-08-01T00:52:19;2.80;;;2.60;;
9657;SDS011;4867;48.112;11.622;2022-08-01T00:54:46;4.30;;;3.03;;
9657;SDS011;4867;48.112;11.622;2022-08-01T00:57:15;3.00;;;2.80;;
9657;SDS011;4867;48.112;11.622;2022-08-01T01:00:03;4.13;;;2.90;;
9657;SDS011;4867;48.112;11.622;2022-08-01T01:02:31;3.70;;;2.80;;
9657;SDS011;4867;48.112;11.622;2022-08-01T01:04:58;3.20;;;2.90;;
9657;SDS011;4867;48.112;11.622;2022-08-01T01:15:19;3.93;;;2.83;;
9657;SDS011;4867;48.112;11.622;2022-08-01T01:17:55;3.33;;;2.90;;
9657;SDS011;4867;48.112;11.622;2022-08-01T01:20:30;3.70;;;2.90;;
9657;SDS011;4867;48.112;11.622;2022-08-01T01:23:06;3.93;;;2.83;;
9657;SDS011;4867;48.112;11.622;2022-08-01T01:30:58;3.70;;;2.90;;
9657;SDS011;4867;48.112;11.622;2022-08-01T01:33:27;3.77;;;2.90;;
9657;SDS011;4867;48.112;11.622;2022-08-01T01:35:59;3.57;;;2.90;;
9657;SDS011;4867;48.112;11.622;2022-08-01T01:38:41;3.00;;;2.80;;
9657;SDS011;4867;48.112;11.622;2022-08-01T01:41:11;3.90;;;3.20;;
9657;SDS011;4867;48.112;11.622;2022-08-01T01:43:39;3.30;;;2.90;;
9657;SDS011;4867;48.112;11.622;2022-08-01T01:46:07;4.20;;;2.90;;
9657;SDS011;4867;48.112;11.622;2022-08-01T01:48:37;2.97;;;2.77;;
9657;SDS011;4867;48.112;11.622;2022-08-01T01:51:06;6.13;;;2.97;;
9657;SDS011;4867;48.112;11.622;2022-08-01T01:53:34;3.60;;;2.90;;
9657;SDS011;4867;48.112;11.622;2022-08-01T01:56:02;4.07;;;2.93;;
9657;SDS011;4867;48.112;11.622;2022-08-01T01:58:30;4.80;;;2.70;;
9657;SDS011;4867;48.112;11.622;2022-08-01T02:01:00;4.83;;;3.10;;
9657;SDS011;4867;48.112;11.622;2022-08-01T02:03:29;3.47;;;2.80;;
9657;SDS011;4867;48.112;11.622;2022-08-01T02:05:57;3.43;;;3.13;;
9657;SDS011;4867;48.112;11.622;2022-08-01T02:08:27;5.07;;;2.77;;
9657;SDS011;4867;48.112;11.622;2022-08-01T02:10:58;3.30;;;3.00;;
9657;SDS011;4867;48.112;11.622;2022-08-01T02:14:03;3.90;;;3.00;;
9657;SDS011;4867;48.112;11.622;2022-08-01T02:16:33;4.53;;;3.00;;
9657;SDS011;4867;48.112;11.622;2022-08-01T02:19:02;4.93;;;2.97;;
9657;SDS011;4867;48.112;11.622;2022-08-01T02:21:35;5.07;;;2.80;;
9657;SDS011;4867;48.112;11.622;2022-08-01T02:24:14;3.70;;;3.07;;
9657;SDS011;4867;48.112;11.622;2022-08-01T02:26:56;4.10;;;2.80;;
9657;SDS011;4867;48.112;11.622;2022-08-01T02:29:34;2.90;;;2.60;;
9657;SDS011;4867;48.112;11.622;2022-08-01T02:32:06;3.20;;;2.90;;
9657;SDS011;4867;48.112;11.622;2022-08-01T02:34:38;3.80;;;2.90;;
9657;SDS011;4867;48.112;11.622;2022-08-01T02:37:07;3.70;;;3.00;;
9657;SDS011;4867;48.112;11.622;2022-08-01T02:39:36;4.70;;;2.80;;
9657;SDS011;4867;48.112;11.622;2022-08-01T02:42:06;3.30;;;3.00;;
9657;SDS011;4867;48.112;11.622;2022-08-01T02:44:35;3.83;;;3.00;;
9657;SDS011;4867;48.112;11.622;2022-08-01T02:47:05;4.13;;;2.80;;
9657;SDS011;4867;48.112;11.622;2022-08-01T02:49:34;4.10;;;3.00;;
9657;SDS011;4867;48.112;11.622;2022-08-01T02:52:18;5.37;;;3.00;;
9657;SDS011;4867;48.112;11.622;2022-08-01T02:54:49;3.97;;;3.00;;
9657;SDS011;4867;48.112;11.622;2022-08-01T02:57:20;3.30;;;3.00;;
9657;SDS011;4867;48.112;11.622;2022-08-01T02:59:54;4.63;;;3.00;;
9657;SDS011;4867;48.112;11.622;2022-08-01T03:02:25;3.10;;;2.90;;
9657;SDS011;4867;48.112;11.622;2022-08-01T03:04:53;3.50;;;3.20;;
9657;SDS011;4867;48.112;11.622;2022-08-01T03:07:22;3.37;;;2.70;;
9657;SDS011;4867;48.112;11.622;2022-08-01T03:09:59;5.47;;;2.90;;
9657;SDS011;4867;48.112;11.622;2022-08-01T03:12:29;3.73;;;3.37;;
9657;SDS011;4867;48.112;11.622;2022-08-01T03:14:59;5.27;;;3.80;;
9657;SDS011;4867;48.112;11.622;2022-08-01T03:17:28;5.33;;;4.13;;
9657;SDS011;4867;48.112;11.622;2022-08-01T03:19:57;5.67;;;3.93;;
9657;SDS011;4867;48.112;11.622;2022-08-01T03:22:30;6.07;;;4.47;;
9657;SDS011;4867;48.112;11.622;2022-08-01T03:25:01;5.67;;;4.30;;
9657;SDS011;4867;48.112;11.622;2022-08-01T03:27:29;5.73;;;4.70;;
9657;SDS011;4867;48.112;11.622;2022-08-01T03:29:58;6.50;;;4.57;;
9657;SDS011;4867;48.112;11.622;2022-08-01T03:32:28;5.83;;;3.93;;
9657;SDS011;4867;48.112;11.622;2022-08-01T03:34:59;3.53;;;3.23;;
9657;SDS011;4867;48.112;11.622;2022-08-01T03:37:28;4.97;;;3.53;;
9657;SDS011;4867;48.112;11.622;2022-08-01T03:40:03;4.50;;;3.13;;
9657;SDS011;4867;48.112;11.622;2022-08-01T03:42:37;3.03;;;2.83;;
9657;SDS011;4867;48.112;11.622;2022-08-01T03:45:15;4.03;;;3.07;;
9657;SDS011;4867;48.112;11.622;2022-08-01T03:47:52;4.20;;;2.97;;
9657;SDS011;4867;48.112;11.622;2022-08-01T03:50:27;5.83;;;3.20;;
9657;SDS011;4867;48.112;11.622;2022-08-01T03:52:57;3.60;;;3.30;;
9657;SDS011;4867;48.112;11.622;2022-08-01T03:55:28;4.70;;;3.23;;
9657;SDS011;4867;48.112;11.622;2022-08-01T03:57:57;3.17;;;2.83;;
9657;SDS011;4867;48.112;11.622;2022-08-01T04:00:26;7.30;;;3.17;;
9657;SDS011;4867;48.112;11.622;2022-08-01T04:02:54;3.57;;;3.27;;
9657;SDS011;4867;48.112;11.622;2022-08-01T04:05:21;3.33;;;3.00;;
9657;SDS011;4867;48.112;11.622;2022-08-01T04:07:48;3.53;;;3.23;;
9657;SDS011;4867;48.112;11.622;2022-08-01T04:10:23;3.60;;;3.30;;
9657;SDS011;4867;48.112;11.622;2022-08-01T04:12:50;3.77;;;3.10;;
9657;SDS011;4867;48.112;11.622;2022-08-01T04:15:18;3.37;;;3.07;;
9657;SDS011;4867;48.112;11.622;2022-08-01T04:17:47;3.93;;;2.97;;
9657;SDS011;4867;48.112;11.622;2022-08-01T04:20:15;3.33;;;3.03;;
9657;SDS011;4867;48.112;11.622;2022-08-01T04:22:43;4.10;;;2.80;;
9657;SDS011;4867;48.112;11.622;2022-08-01T04:25:12;3.30;;;3.00;;
9657;SDS011;4867;48.112;11.622;2022-08-01T04:27:42;3.20;;;2.90;;
9657;SDS011;4867;48.112;11.622;2022-08-01T04:30:21;4.23;;;3.00;;
9657;SDS011;4867;48.112;11.622;2022-08-01T04:32:54;3.47;;;3.00;;
9657;SDS011;4867;48.112;11.622;2022-08-01T04:35:23;4.13;;;3.20;;
9657;SDS011;4867;48.112;11.622;2022-08-01T04:38:14;3.50;;;3.20;;
9657;SDS011;4867;48.112;11.622;2022-08-01T04:40:49;3.30;;;3.00;;
9657;SDS011;4867;48.112;11.622;2022-08-01T04:43:21;3.30;;;3.00;;
9657;SDS011;4867;48.112;11.622;2022-08-01T04:45:50;3.30;;;3.00;;
9657;SDS011;4867;48.112;11.622;2022-08-01T04:48:18;3.10;;;2.80;;
9657;SDS011;4867;48.112;11.622;2022-08-01T04:50:48;3.50;;;3.07;;
9657;SDS011;4867;48.112;11.622;2022-08-01T04:53:19;3.47;;;2.97;;
9657;SDS011;4867;48.112;11.622;2022-08-01T04:55:51;4.77;;;3.30;;
9657;SDS011;4867;48.112;11.622;2022-08-01T04:58:19;3.20;;;3.00;;
9657;SDS011;4867;48.112;11.622;2022-08-01T05:00:46;3.37;;;2.90;;
9657;SDS011;4867;48.112;11.622;2022-08-01T05:03:13;3.50;;;3.20;;
9657;SDS011;4867;48.112;11.622;2022-08-01T05:05:41;3.40;;;3.10;;
9657;SDS011;4867;48.112;11.622;2022-08-01T05:08:08;5.43;;;3.20;;
9657;SDS011;4867;48.112;11.622;2022-08-01T05:10:37;3.93;;;3.20;;
9657;SDS011;4867;48.112;11.622;2022-08-01T05:13:04;4.20;;;2.97;;
9657;SDS011;4867;48.112;11.622;2022-08-01T05:15:32;5.77;;;3.27;;
9657;SDS011;4867;48.112;11.622;2022-08-01T05:18:03;4.57;;;3.10;;
9657;SDS011;4867;48.112;11.622;2022-08-01T05:20:33;4.77;;;3.40;;
9657;SDS011;4867;48.112;11.622;2022-08-01T05:23:01;3.60;;;3.30;;
9657;SDS011;4867;48.112;11.622;2022-08-01T05:25:28;4.77;;;3.10;;
9657;SDS011;4867;48.112;11.622;2022-08-01T05:28:15;5.43;;;3.13;;
9657;SDS011;4867;48.112;11.622;2022-08-01T05:30:44;4.13;;;3.27;;
9657;SDS011;4867;48.112;11.622;2022-08-01T05:33:11;5.83;;;3.20;;
9657;SDS011;4867;48.112;11.622;2022-08-01T05:35:39;4.07;;;3.10;;
9657;SDS011;4867;48.112;11.622;2022-08-01T05:38:14;3.57;;;3.27;;
9657;SDS011;4867;48.112;11.622;2022-08-01T05:40:41;3.43;;;3.13;;
9657;SDS011;4867;48.112;11.622;2022-08-01T05:43:14;7.00;;;3.30;;
9657;SDS011;4867;48.112;11.622;2022-08-01T05:45:41;5.47;;;3.50;;
9657;SDS011;4867;48.112;11.622;2022-08-01T05:48:08;5.87;;;3.30;;
9657;SDS011;4867;48.112;11.622;2022-08-01T05:50:35;3.33;;;3.10;;
9657;SDS011;4867;48.112;11.622;2022-08-01T05:53:03;4.07;;;3.03;;
9657;SDS011;4867;48.112;11.622;2022-08-01T05:55:30;3.50;;;3.20;;
9657;SDS011;4867;48.112;11.622;2022-08-01T05:57:57;5.67;;;3.20;;
9657;SDS011;4867;48.112;11.622;2022-08-01T06:00:24;4.67;;;3.00;;
9657;SDS011;4867;48.112;11.622;2022-08-01T06:02:51;3.83;;;3.40;;
9657;SDS011;4867;48.112;11.622;2022-08-01T06:05:18;3.57;;;2.97;;
9657;SDS011;4867;48.112;11.622;2022-08-01T06:07:45;4.53;;;3.50;;
9657;SDS011;4867;48.112;11.622;2022-08-01T06:10:12;3.97;;;3.23;;
9657;SDS011;4867;48.112;11.622;2022-08-01T06:12:39;4.10;;;3.67;;
9657;SDS011;4867;48.112;11.622;2022-08-01T06:15:08;5.13;;;3.30;;
9657;SDS011;4867;48.112;11.622;2022-08-01T06:17:35;4.27;;;3.27;;
9657;SDS011;4867;48.112;11.622;2022-08-01T06:20:02;3.57;;;3.07;;
9657;SDS011;4867;48.112;11.622;2022-08-01T06:22:35;3.73;;;3.40;;
9657;SDS011;4867;48.112;11.622;2022-08-01T06:25:03;4.37;;;3.40;;
9657;SDS011;4867;48.112;11.622;2022-08-01T06:27:35;3.80;;;3.50;;
9657;SDS011;4867;48.112;11.622;2022-08-01T06:30:03;4.97;;;3.13;;
9657;SDS011;4867;48.112;11.622;2022-08-01T06:32:33;4.30;;;3.13;;
9657;SDS011;4867;48.112;11.622;2022-08-01T06:35:00;5.37;;;4.50;;
9657;SDS011;4867;48.112;11.622;2022-08-01T06:37:30;3.77;;;3.40;;
9657;SDS011;4867;48.112;11.622;2022-08-01T06:40:02;4.27;;;3.23;;
9657;SDS011;4867;48.112;11.622;2022-08-01T06:42:30;4.73;;;3.23;;
9657;SDS011;4867;48.112;11.622;2022-08-01T06:47:31;3.60;;;3.03;;
9657;SDS011;4867;48.112;11.622;2022-08-01T06:49:58;4.33;;;3.43;;
9657;SDS011;4867;48.112;11.622;2022-08-01T06:52:26;3.60;;;3.30;;
9657;SDS011;4867;48.112;11.622;2022-08-01T06:54:53;3.53;;;3.20;;
9657;SDS011;4867;48.112;11.622;2022-08-01T06:57:20;3.73;;;3.43;;
9657;SDS011;4867;48.112;11.622;2022-08-01T06:59:47;4.33;;;3.30;;
9657;SDS011;4867;48.112;11.622;2022-08-01T07:02:21;3.67;;;3.30;;
9657;SDS011;4867;48.112;11.622;2022-08-01T07:04:49;4.63;;;3.27;;
9657;SDS011;4867;48.112;11.622;2022-08-01T07:07:15;5.43;;;3.43;;
9657;SDS011;4867;48.112;11.622;2022-08-01T07:09:42;4.00;;;3.33;;
9657;SDS011;4867;48.112;11.622;2022-08-01T07:12:09;4.13;;;3.43;;
9657;SDS011;4867;48.112;11.622;2022-08-01T07:14:37;4.10;;;3.70;;
9657;SDS011;4867;48.112;11.622;2022-08-01T07:17:04;3.80;;;3.40;;
9657;SDS011;4867;48.112;11.622;2022-08-01T07:19:31;4.07;;;3.30;;
9657;SDS011;4867;48.112;11.622;2022-08-01T07:21:58;4.37;;;3.43;;
9657;SDS011;4867;48.112;11.622;2022-08-01T07:24:25;5.37;;;3.30;;
9657;SDS011;4867;48.112;11.622;2022-08-01T07:26:54;4.33;;;3.47;;
9657;SDS011;4867;48.112;11.622;2022-08-01T07:29:21;6.03;;;3.43;;
9657;SDS011;4867;48.112;11.622;2022-08-01T07:31:49;4.33;;;3.80;;
9657;SDS011;4867;48.112;11.622;2022-08-01T07:34:17;8.67;;;3.80;;
9657;SDS011;4867;48.112;11.622;2022-08-01T07:36:45;4.43;;;3.63;;
9657;SDS011;4867;48.112;11.622;2022-08-01T07:39:11;4.20;;;3.80;;
9657;SDS011;4867;48.112;11.622;2022-08-01T07:41:38;4.30;;;3.90;;
9657;SDS011;4867;48.112;11.622;2022-08-01T07:44:25;4.33;;;3.80;;
9657;SDS011;4867;48.112;11.622;2022-08-01T07:46:54;4.37;;;3.87;;
9657;SDS011;4867;48.112;11.622;2022-08-01T07:49:21;4.37;;;3.97;;
9657;SDS011;4867;48.112;11.622;2022-08-01T07:51:48;4.37;;;3.47;;
9657;SDS011;4867;48.112;11.622;2022-08-01T07:54:35;4.27;;;3.83;;
9657;SDS011;4867;48.112;11.622;2022-08-01T07:57:02;6.20;;;4.00;;
9657;SDS011;4867;48.112;11.622;2022-08-01T07:59:30;5.20;;;3.90;;
9657;SDS011;4867;48.112;11.622;2022-08-01T08:01:57;4.47;;;3.53;;
9657;SDS011;4867;48.112;11.622;2022-08-01T08:04:24;4.03;;;3.73;;
9657;SDS011;4867;48.112;11.622;2022-08-01T08:06:51;5.87;;;3.80;;
9657;SDS011;4867;48.112;11.622;2022-08-01T08:09:19;4.53;;;4.13;;
9657;SDS011;4867;48.112;11.622;2022-08-01T08:11:46;4.30;;;3.83;;
9657;SDS011;4867;48.112;11.622;2022-08-01T08:14:16;4.83;;;3.60;;
9657;SDS011;4867;48.112;11.622;2022-08-01T08:16:44;4.43;;;4.00;;
9657;SDS011;4867;48.112;11.622;2022-08-01T08:19:11;5.37;;;4.00;;
9657;SDS011;4867;48.112;11.622;2022-08-01T08:21:38;3.80;;;3.40;;
9657;SDS011;4867;48.112;11.622;2022-08-01T08:24:05;5.97;;;3.60;;
9657;SDS011;4867;48.112;11.622;2022-08-01T08:26:56;5.17;;;3.60;;
9657;SDS011;4867;48.112;11.622;2022-08-01T08:29:25;3.97;;;3.47;;
9657;SDS011;4867;48.112;11.622;2022-08-01T08:31:53;4.03;;;3.70;;
9657;SDS011;4867;48.112;11.622;2022-08-01T08:34:22;4.23;;;3.70;;
9657;SDS011;4867;48.112;11.622;2022-08-01T08:36:49;4.30;;;3.90;;
9657;SDS011;4867;48.112;11.622;2022-08-01T08:39:17;3.90;;;3.60;;
9657;SDS011;4867;48.112;11.622;2022-08-01T08:41:45;5.10;;;3.97;;
9657;SDS011;4867;48.112;11.622;2022-08-01T08:44:15;4.35;;;3.90;;
9657;SDS011;4867;48.112;11.622;2022-08-01T08:46:46;4.17;;;3.77;;
9657;SDS011;4867;48.112;11.622;2022-08-01T08:49:16;5.30;;;3.83;;
9657;SDS011;4867;48.112;11.622;2022-08-01T08:51:51;5.03;;;3.80;;
9657;SDS011;4867;48.112;11.622;2022-08-01T08:54:22;5.90;;;3.60;;
9657;SDS011;4867;48.112;11.622;2022-08-01T08:56:56;4.50;;;3.87;;
9657;SDS011;4867;48.112;11.622;2022-08-01T08:59:24;4.20;;;3.80;;
9657;SDS011;4867;48.112;11.622;2022-08-01T09:01:52;4.27;;;3.87;;
9657;SDS011;4867;48.112;11.622;2022-08-01T09:04:23;3.80;;;3.50;;
9657;SDS011;4867;48.112;11.622;2022-08-01T09:06:52;4.87;;;3.60;;
9657;SDS011;4867;48.112;11.622;2022-08-01T09:09:20;5.07;;;3.45;;
9657;SDS011;4867;48.112;11.622;2022-08-01T09:11:46;3.40;;;3.10;;
9657;SDS011;4867;48.112;11.622;2022-08-01T09:14:23;2.92;;;2.72;;
9657;SDS011;4867;48.112;11.622;2022-08-01T09:17:00;3.80;;;2.90;;
9657;SDS011;4867;48.112;11.622;2022-08-01T09:19:35;3.60;;;3.25;;
9657;SDS011;4867;48.112;11.622;2022-08-01T09:22:07;4.53;;;3.67;;
9657;SDS011;4867;48.112;11.622;2022-08-01T09:24:36;4.95;;;4.00;;
9657;SDS011;4867;48.112;11.622;2022-08-01T09:27:19;3.38;;;3.08;;
9657;SDS011;4867;48.112;11.622;2022-08-01T09:29:48;4.45;;;3.70;;
9657;SDS011;4867;48.112;11.622;2022-08-01T09:32:30;4.53;;;2.95;;
9657;SDS011;4867;48.112;11.622;2022-08-01T09:35:44;4.85;;;2.90;;
9657;SDS011;4867;48.112;11.622;2022-08-01T09:38:12;3.25;;;3.00;;
9657;SDS011;4867;48.112;11.622;2022-08-01T09:40:48;3.40;;;3.10;;
9657;SDS011;4867;48.112;11.622;2022-08-01T09:43:18;3.53;;;2.80;;
9657;SDS011;4867;48.112;11.622;2022-08-01T09:45:46;3.75;;;2.80;;
9657;SDS011;4867;48.112;11.622;2022-08-01T09:48:19;2.92;;;2.70;;
9657;SDS011;4867;48.112;11.622;2022-08-01T09:50:53;3.03;;;2.72;;
9657;SDS011;4867;48.112;11.622;2022-08-01T09:53:20;3.05;;;2.83;;
9657;SDS011;4867;48.112;11.622;2022-08-01T09:56:00;3.30;;;2.75;;
9657;SDS011;4867;48.112;11.622;2022-08-01T09:58:59;3.25;;;2.63;;
9657;SDS011;4867;48.112;11.622;2022-08-01T10:01:28;4.35;;;2.80;;
9657;SDS011;4867;48.112;11.622;2022-08-01T10:06:37;3.13;;;2.75;;
9657;SDS011;4867;48.112;11.622;2022-08-01T10:09:06;3.63;;;2.92;;
9657;SDS011;4867;48.112;11.622;2022-08-01T10:11:33;3.40;;;3.00;;
9657;SDS011;4867;48.112;11.622;2022-08-01T10:14:05;3.55;;;2.63;;
9657;SDS011;4867;48.112;11.622;2022-08-01T10:16:35;4.28;;;2.90;;
9657;SDS011;4867;48.112;11.622;2022-08-01T10:19:05;3.10;;;2.80;;
9657;SDS011;4867;48.112;11.622;2022-08-01T10:21:40;3.05;;;2.80;;
9657;SDS011;4867;48.112;11.622;2022-08-01T10:24:24;3.05;;;2.75;;
9657;SDS011;4867;48.112;11.622;2022-08-01T10:26:55;3.78;;;2.75;;
9657;SDS011;4867;48.112;11.622;2022-08-01T10:29:59;2.80;;;2.60;;
9657;SDS011;4867;48.112;11.622;2022-08-01T10:32:48;3.80;;;2.90;;
9657;SDS011;4867;48.112;11.622;2022-08-01T10:35:18;4.07;;;2.65;;
9657;SDS011;4867;48.112;11.622;2022-08-01T10:38:05;2.50;;;2.30;;
9657;SDS011;4867;48.112;11.622;2022-08-01T10:40:39;3.33;;;2.72;;
9657;SDS011;4867;48.112;11.622;2022-08-01T10:43:06;4.40;;;2.47;;
9657;SDS011;4867;48.112;11.622;2022-08-01T10:45:35;2.80;;;2.60;;
9657;SDS011;4867;48.112;11.622;2022-08-01T10:48:08;2.70;;;2.50;;
9657;SDS011;4867;48.112;11.622;2022-08-01T10:50:46;2.60;;;2.38;;
9657;SDS011;4867;48.112;11.622;2022-08-01T10:53:22;2.40;;;2.20;;
9657;SDS011;4867;48.112;11.622;2022-08-01T10:56:07;3.70;;;2.40;;
9657;SDS011;4867;48.112;11.622;2022-08-01T10:58:39;2.72;;;2.47;;
9657;SDS011;4867;48.112;11.622;2022-08-01T11:03:58;3.45;;;2.63;;
9657;SDS011;4867;48.112;11.622;2022-08-01T11:09:29;4.30;;;2.60;;
9657;SDS011;4867;48.112;11.622;2022-08-01T11:12:07;6.93;;;2.50;;
9657;SDS011;4867;48.112;11.622;2022-08-01T11:17:35;4.78;;;2.70;;
9657;SDS011;4867;48.112;11.622;2022-08-01T11:23:15;2.50;;;2.30;;
9657;SDS011;4867;48.112;11.622;2022-08-01T11:28:22;2.50;;;2.30;;
9657;SDS011;4867;48.112;11.622;2022-08-01T11:41:39;2.70;;;2.50;;
9657;SDS011;4867;48.112;11.622;2022-08-01T11:44:08;2.63;;;2.42;;
9657;SDS011;4867;48.112;11.622;2022-08-01T11:49:26;3.17;;;2.47;;
9657;SDS011;4867;48.112;11.622;2022-08-01T11:54:47;3.80;;;2.20;;
9657;SDS011;4867;48.112;11.622;2022-08-01T11:57:22;3.15;;;2.50;;
9657;SDS011;4867;48.112;11.622;2022-08-01T12:00:00;2.78;;;2.30;;
9657;SDS011;4867;48.112;11.622;2022-08-01T12:02:39;3.88;;;2.50;;
9657;SDS011;4867;48.112;11.622;2022-08-01T12:05:07;2.20;;;2.00;;
9657;SDS011;4867;48.112;11.622;2022-08-01T12:07:50;2.40;;;2.20;;
9657;SDS011;4867;48.112;11.622;2022-08-01T12:10:20;4.07;;;2.30;;
9657;SDS011;4867;48.112;11.622;2022-08-01T12:12:50;2.40;;;2.20;;
9657;SDS011;4867;48.112;11.622;2022-08-01T12:15:18;3.38;;;2.17;;
9657;SDS011;4867;48.112;11.622;2022-08-01T12:17:55;2.75;;;2.00;;
9657;SDS011;4867;48.112;11.622;2022-08-01T12:20:41;2.40;;;2.20;;
9657;SDS011;4867;48.112;11.622;2022-08-01T12:23:22;3.15;;;2.50;;
9657;SDS011;4867;48.112;11.622;2022-08-01T12:25:52;2.67;;;2.08;;
9657;SDS011;4867;48.112;11.622;2022-08-01T12:28:19;3.45;;;2.20;;
9657;SDS011;4867;48.112;11.622;2022-08-01T12:30:47;3.20;;;2.38;;
9657;SDS011;4867;48.112;11.622;2022-08-01T12:33:17;2.97;;;2.05;;
9657;SDS011;4867;48.112;11.622;2022-08-01T12:35:45;2.60;;;1.85;;
9657;SDS011;4867;48.112;11.622;2022-08-01T12:38:19;6.10;;;2.33;;
9657;SDS011;4867;48.112;11.622;2022-08-01T12:40:49;2.20;;;2.00;;
9657;SDS011;4867;48.112;11.622;2022-08-01T12:43:19;2.30;;;2.10;;
9657;SDS011;4867;48.112;11.622;2022-08-01T12:45:55;3.55;;;2.60;;
9657;SDS011;4867;48.112;11.622;2022-08-01T12:48:25;3.35;;;1.90;;
9657;SDS011;4867;48.112;11.622;2022-08-01T12:50:53;3.85;;;2.40;;
9657;SDS011;4867;48.112;11.622;2022-08-01T12:53:23;3.30;;;2.08;;
9657;SDS011;4867;48.112;11.622;2022-08-01T12:55:53;4.22;;;2.00;;
9657;SDS011;4867;48.112;11.622;2022-08-01T12:58:34;2.50;;;2.00;;
9657;SDS011;4867;48.112;11.622;2022-08-01T13:01:03;3.38;;;2.05;;
9657;SDS011;4867;48.112;11.622;2022-08-01T13:03:34;2.53;;;2.00;;
9657;SDS011;4867;48.112;11.622;2022-08-01T13:06:07;2.28;;;2.00;;
9657;SDS011;4867;48.112;11.622;2022-08-01T13:08:37;2.47;;;2.13;;
9657;SDS011;4867;48.112;11.622;2022-08-01T13:11:08;4.22;;;2.10;;
9657;SDS011;4867;48.112;11.622;2022-08-01T13:13:50;3.78;;;2.28;;
9657;SDS011;4867;48.112;11.622;2022-08-01T13:16:18;2.20;;;2.00;;
9657;SDS011;4867;48.112;11.622;2022-08-01T13:19:04;2.20;;;1.95;;
9657;SDS011;4867;48.112;11.622;2022-08-01T13:21:32;2.30;;;2.10;;
9657;SDS011;4867;48.112;11.622;2022-08-01T13:24:22;2.22;;;2.03;;
9657;SDS011;4867;48.112;11.622;2022-08-01T13:26:59;2.33;;;1.88;;
9657;SDS011;4867;48.112;11.622;2022-08-01T13:32:00;4.97;;;2.22;;
9657;SDS011;4867;48.112;11.622;2022-08-01T13:35:00;7.13;;;2.10;;
9657;SDS011;4867;48.112;11.622;2022-08-01T13:37:29;5.70;;;2.50;;
9657;SDS011;4867;48.112;11.622;2022-08-01T13:39:57;5.13;;;1.98;;
9657;SDS011;4867;48.112;11.622;2022-08-01T13:42:25;3.90;;;1.80;;
9657;SDS011;4867;48.112;11.622;2022-08-01T13:44:52;2.75;;;1.77;;
9657;SDS011;4867;48.112;11.622;2022-08-01T13:47:18;3.58;;;1.90;;
9657;SDS011;4867;48.112;11.622;2022-08-01T13:49:58;4.13;;;1.60;;
9657;SDS011;4867;48.112;11.622;2022-08-01T13:52:28;1.90;;;1.70;;
9657;SDS011;4867;48.112;11.622;2022-08-01T13:54:55;4.97;;;1.83;;
9657;SDS011;4867;48.112;11.622;2022-08-01T13:57:22;4.03;;;2.00;;
9657;SDS011;4867;48.112;11.622;2022-08-01T13:59:49;6.28;;;2.03;;
9657;SDS011;4867;48.112;11.622;2022-08-01T14:02:18;2.22;;;1.90;;
9657;SDS011;4867;48.112;11.622;2022-08-01T14:04:46;4.90;;;1.95;;
9657;SDS011;4867;48.112;11.622;2022-08-01T14:07:12;3.08;;;1.98;;
9657;SDS011;4867;48.112;11.622;2022-08-01T14:09:40;3.17;;;1.65;;
9657;SDS011;4867;48.112;11.622;2022-08-01T14:12:28;2.58;;;2.17;;
9657;SDS011;4867;48.112;11.622;2022-08-01T14:14:55;3.20;;;1.90;;
9657;SDS011;4867;48.112;11.622;2022-08-01T14:17:22;7.40;;;2.15;;
9657;SDS011;4867;48.112;11.622;2022-08-01T14:19:49;3.28;;;1.90;;
9657;SDS011;4867;48.112;11.622;2022-08-01T14:22:16;3.47;;;2.08;;
9657;SDS011;4867;48.112;11.622;2022-08-01T14:24:43;2.00;;;1.80;;
9657;SDS011;4867;48.112;11.622;2022-08-01T14:27:10;2.20;;;2.00;;
9657;SDS011;4867;48.112;11.622;2022-08-01T14:29:36;3.17;;;2.17;;
9657;SDS011;4867;48.112;11.622;2022-08-01T14:32:23;2.30;;;2.10;;
9657;SDS011;4867;48.112;11.622;2022-08-01T14:34:54;3.90;;;1.65;;
9657;SDS011;4867;48.112;11.622;2022-08-01T14:37:22;4.32;;;1.52;;
9657;SDS011;4867;48.112;11.622;2022-08-01T14:39:59;4.28;;;1.60;;
9657;SDS011;4867;48.112;11.622;2022-08-01T14:42:35;1.60;;;1.50;;
9657;SDS011;4867;48.112;11.622;2022-08-01T14:45:03;2.10;;;1.90;;
9657;SDS011;4867;48.112;11.622;2022-08-01T14:47:35;3.83;;;2.05;;
9657;SDS011;4867;48.112;11.622;2022-08-01T14:50:04;4.20;;;2.05;;
9657;SDS011;4867;48.112;11.622;2022-08-01T14:52:32;4.00;;;2.30;;
9657;SDS011;4867;48.112;11.622;2022-08-01T14:55:00;5.90;;;2.40;;
9657;SDS011;4867;48.112;11.622;2022-08-01T14:57:27;3.85;;;2.50;;
9657;SDS011;4867;48.112;11.622;2022-08-01T14:59:54;4.40;;;2.55;;
9657;SDS011;4867;48.112;11.622;2022-08-01T15:02:22;4.32;;;2.38;;
9657;SDS011;4867;48.112;11.622;2022-08-01T15:04:49;4.70;;;2.30;;
9657;SDS011;4867;48.112;11.622;2022-08-01T15:07:17;6.60;;;2.40;;
9657;SDS011;4867;48.112;11.622;2022-08-01T15:09:44;5.65;;;2.40;;
9657;SDS011;4867;48.112;11.622;2022-08-01T15:12:11;3.97;;;2.50;;
9657;SDS011;4867;48.112;11.622;2022-08-01T15:14:38;5.90;;;2.40;;
9657;SDS011;4867;48.112;11.622;2022-08-01T15:19:41;4.18;;;2.50;;
9657;SDS011;4867;48.112;11.622;2022-08-01T15:22:08;3.93;;;2.50;;
9657;SDS011;4867;48.112;11.622;2022-08-01T15:24:35;3.38;;;2.47;;
9657;SDS011;4867;48.112;11.622;2022-08-01T15:27:03;4.20;;;2.80;;
9657;SDS011;4867;48.112;11.622;2022-08-01T15:29:30;3.50;;;2.65;;
9657;SDS011;4867;48.112;11.622;2022-08-01T15:31:59;2.65;;;2.35;;
9657;SDS011;4867;48.112;11.622;2022-08-01T15:34:27;4.40;;;2.60;;
9657;SDS011;4867;48.112;11.622;2022-08-01T15:36:53;2.75;;;2.30;;
9657;SDS011;4867;48.112;11.622;2022-08-01T15:39:21;2.37;;;2.17;;
9657;SDS011;4867;48.112;11.622;2022-08-01T15:41:47;2.80;;;2.40;;
9657;SDS011;4867;48.112;11.622;2022-08-01T15:44:15;5.05;;;2.70;;
9657;SDS011;4867;48.112;11.622;2022-08-01T15:46:46;5.77;;;2.77;;
9657;SDS011;4867;48.112;11.622;2022-08-01T15:49:14;7.30;;;2.90;;
9657;SDS011;4867;48.112;11.622;2022-08-01T15:51:43;3.80;;;2.80;;
9657;SDS011;4867;48.112;11.622;2022-08-01T15:54:09;3.30;;;3.00;;
9657;SDS011;4867;48.112;11.622;2022-08-01T15:56:40;4.50;;;2.70;;
9657;SDS011;4867;48.112;11.622;2022-08-01T15:59:07;5.37;;;2.87;;
9657;SDS011;4867;48.112;11.622;2022-08-01T16:01:34;4.97;;;2.63;;
9657;SDS011;4867;48.112;11.622;2022-08-01T16:04:01;4.23;;;2.80;;
9657;SDS011;4867;48.112;11.622;2022-08-01T16:06:28;3.63;;;2.60;;
9657;SDS011;4867;48.112;11.622;2022-08-01T16:08:55;4.07;;;2.80;;
9657;SDS011;4867;48.112;11.622;2022-08-01T16:11:23;3.70;;;2.90;;
9657;SDS011;4867;48.112;11.622;2022-08-01T16:13:52;3.13;;;2.83;;
9657;SDS011;4867;48.112;11.622;2022-08-01T16:16:20;3.03;;;2.67;;